createdAt,value
2023-05-24T00:00:13.332Z,100034.20
2023-05-24T00:01:37.708Z,100036.42
2023-05-24T00:02:44.051Z,100032.11
2023-05-24T00:03:47.965Z,100031.61
2023-05-24T00:04:53.031Z,100025.50
2023-05-24T00:05:57.034Z,100025.35
2023-05-24T00:07:03.577Z,100025.88
2023-05-24T00:08:06.661Z,100024.73
2023-05-24T00:09:09.546Z,100025.41
2023-05-24T00:10:12.659Z,100025.23
2023-05-24T00:11:15.668Z,100025.02
2023-05-24T00:12:18.551Z,100032.75
2023-05-24T00:13:21.524Z,100029.89
2023-05-24T00:14:25.384Z,100031.73
2023-05-24T00:15:28.398Z,100029.71
2023-05-24T00:16:31.411Z,100028.68
2023-05-24T00:17:41.269Z,100028.81
2023-05-24T00:18:47.096Z,100028.54
2023-05-24T00:19:50.418Z,100026.70
2023-05-24T00:20:53.506Z,100025.35
2023-05-24T00:21:56.676Z,100026.60
2023-05-24T00:22:59.625Z,100023.81
2023-05-24T00:24:03.101Z,100019.61
2023-05-24T00:25:06.557Z,100020.05
2023-05-24T00:26:10.398Z,100014.88
2023-05-24T00:27:16.164Z,100013.69
2023-05-24T00:28:19.248Z,100012.44
2023-05-24T00:29:22.143Z,100011.41
2023-05-24T00:30:25.103Z,100012.18
2023-05-24T00:31:28.210Z,100010.11
2023-05-24T00:32:31.311Z,100012.43
2023-05-24T00:33:34.440Z,100008.56
2023-05-24T00:34:37.382Z,100011.38
2023-05-24T00:35:40.519Z,100010.20
2023-05-24T00:36:43.429Z,100009.66
2023-05-24T00:37:46.609Z,100011.97
2023-05-24T00:38:53.181Z,100007.43
2023-05-24T00:39:56.093Z,100005.30
2023-05-24T00:41:01.489Z,100007.43
2023-05-24T00:42:04.822Z,100011.92
2023-05-24T00:43:07.804Z,100008.95
2023-05-24T00:44:11.227Z,100005.31
2023-05-24T00:45:14.431Z,100007.13
2023-05-24T00:46:17.504Z,100008.48
2023-05-24T00:47:20.627Z,100017.27
2023-05-24T00:48:27.752Z,100019.20
2023-05-24T00:49:31.629Z,100021.67
2023-05-24T00:50:35.104Z,100020.21
2023-05-24T00:51:38.607Z,100020.17
2023-05-24T00:52:42.395Z,100017.79
2023-05-24T00:53:48.381Z,100018.27
2023-05-24T00:54:51.885Z,100007.84
2023-05-24T00:55:56.684Z,100006.89
2023-05-24T00:56:59.905Z,100009.30
2023-05-24T00:58:03.181Z,100005.38
2023-05-24T00:59:06.641Z,100004.69
2023-05-24T01:00:11.786Z,100006.65
2023-05-24T01:01:14.900Z,100008.20
2023-05-24T01:02:18.638Z,100008.76
2023-05-24T01:03:23.225Z,100006.10
2023-05-24T01:04:26.420Z,100009.77
2023-05-24T01:05:29.349Z,100006.82
2023-05-24T01:07:10.077Z,100009.01
2023-05-24T01:08:29.397Z,100009.45
2023-05-24T01:09:42.094Z,100020.67
2023-05-24T01:11:04.701Z,100009.33
2023-05-24T01:12:26.015Z,100010.94
2023-05-24T01:13:47.774Z,100012.56
2023-05-24T01:15:31.267Z,100004.45
2023-05-24T01:16:46.687Z,100006.05
2023-05-24T01:17:50.525Z,100003.65
2023-05-24T01:18:57.205Z,100003.60
2023-05-24T01:20:11.400Z,100003.89
2023-05-24T01:21:39.429Z,100006.24
2023-05-24T01:22:48.715Z,100003.48
2023-05-24T01:24:14.390Z,100007.16
2023-05-24T01:25:49.646Z,100005.95
2023-05-24T01:27:09.413Z,100007.61
2023-05-24T01:28:13.006Z,100008.50
2023-05-24T01:29:16.857Z,100007.16
2023-05-24T01:30:20.742Z,100009.38
2023-05-24T01:31:24.753Z,100008.63
2023-05-24T01:32:28.438Z,100009.17
2023-05-24T01:33:32.638Z,100008.41
2023-05-24T01:34:35.583Z,100009.07
2023-05-24T01:35:41.437Z,100008.02
2023-05-24T01:36:44.360Z,100008.21
2023-05-24T01:37:48.113Z,100008.60
2023-05-24T01:38:51.858Z,100015.92
2023-05-24T01:39:55.458Z,100009.61
2023-05-24T01:41:05.793Z,100014.66
2023-05-24T01:42:27.276Z,100010.33
2023-05-24T01:43:42.771Z,100019.45
2023-05-24T01:44:55.702Z,100011.79
2023-05-24T01:46:03.399Z,100009.15
2023-05-24T01:47:09.391Z,100008.66
2023-05-24T01:48:19.908Z,100008.73
2023-05-24T01:49:27.059Z,100010.81
2023-05-24T01:50:37.345Z,100009.41
2023-05-24T01:51:48.639Z,100012.66
2023-05-24T01:52:53.628Z,100011.73
2023-05-24T01:53:58.881Z,100010.75
2023-05-24T01:55:03.614Z,100009.77
2023-05-24T01:56:08.249Z,100012.73
2023-05-24T01:57:11.838Z,100011.30
2023-05-24T01:58:16.816Z,100011.91
2023-05-24T01:59:22.055Z,100010.38
2023-05-24T02:00:25.363Z,100011.25
2023-05-24T02:01:30.139Z,100013.84
2023-05-24T02:02:33.153Z,100011.55
2023-05-24T02:03:38.497Z,100016.27
2023-05-24T02:04:41.623Z,100020.20
2023-05-24T02:05:46.005Z,100021.69
2023-05-24T02:06:48.890Z,100019.06
2023-05-24T02:07:52.024Z,100023.61
2023-05-24T02:08:54.938Z,100024.18
2023-05-24T02:09:57.879Z,100024.36
2023-05-24T02:11:00.947Z,100021.44
2023-05-24T02:12:04.173Z,100018.68
2023-05-24T02:13:07.984Z,100019.85
2023-05-24T02:14:11.547Z,100018.13
2023-05-24T02:15:15.100Z,100021.02
2023-05-24T02:16:18.674Z,100019.68
2023-05-24T02:17:22.713Z,100019.21
2023-05-24T02:18:25.836Z,100015.64
2023-05-24T02:19:28.772Z,100021.29
2023-05-24T02:20:31.761Z,100022.17
2023-05-24T02:21:36.628Z,100020.39
2023-05-24T02:22:39.912Z,100010.73
2023-05-24T02:23:42.884Z,100013.26
2023-05-24T02:24:48.464Z,100012.80
2023-05-24T02:25:51.505Z,100017.77
2023-05-24T02:26:56.061Z,100013.97
2023-05-24T02:27:59.908Z,100013.69
2023-05-24T02:29:03.330Z,100015.12
2023-05-24T02:30:07.293Z,100012.73
2023-05-24T02:31:10.486Z,100014.95
2023-05-24T02:32:13.764Z,100013.45
2023-05-24T02:33:16.800Z,100015.10
2023-05-24T02:34:19.782Z,100014.14
2023-05-24T02:35:22.800Z,100022.14
2023-05-24T02:36:25.815Z,100018.48
2023-05-24T02:37:28.811Z,100020.69
2023-05-24T02:38:32.867Z,100021.27
2023-05-24T02:39:35.796Z,100019.95
2023-05-24T02:40:38.790Z,100018.48
2023-05-24T02:41:42.275Z,100018.61
2023-05-24T02:42:45.644Z,100020.11
2023-05-24T02:43:48.945Z,100021.81
2023-05-24T02:44:52.992Z,100022.38
2023-05-24T02:45:56.391Z,100020.01
2023-05-24T02:46:59.392Z,100022.70
2023-05-24T02:48:02.549Z,100022.38
2023-05-24T02:49:05.588Z,100024.30
2023-05-24T02:50:08.999Z,100023.18
2023-05-24T02:51:12.017Z,100025.35
2023-05-24T02:52:16.089Z,100024.48
2023-05-24T02:53:19.053Z,100027.80
2023-05-24T02:54:22.048Z,100026.86
2023-05-24T02:55:27.073Z,100030.39
2023-05-24T02:56:30.147Z,100028.84
2023-05-24T02:57:34.296Z,100019.55
2023-05-24T02:58:40.587Z,100022.70
2023-05-24T02:59:43.681Z,100024.98
2023-05-24T03:00:47.664Z,100024.12
2023-05-24T03:01:51.075Z,100022.68
2023-05-24T03:02:55.618Z,100034.33
2023-05-24T03:03:58.778Z,100023.98
2023-05-24T03:05:01.775Z,100024.61
2023-05-24T03:06:08.704Z,100024.19
2023-05-24T03:07:11.688Z,100026.34
2023-05-24T03:08:14.734Z,100027.66
2023-05-24T03:09:19.088Z,100028.78
2023-05-24T03:10:22.096Z,100029.08
2023-05-24T03:11:26.351Z,100029.59
2023-05-24T03:12:29.436Z,100029.70
2023-05-24T03:13:32.556Z,100032.91
2023-05-24T03:14:35.600Z,100033.44
2023-05-24T03:15:38.559Z,100035.02
2023-05-24T03:16:41.784Z,100033.52
2023-05-24T03:17:44.877Z,100034.73
2023-05-24T03:18:50.833Z,100032.82
2023-05-24T03:19:54.071Z,100038.06
2023-05-24T03:20:57.047Z,100035.57
2023-05-24T03:21:59.943Z,100037.21
2023-05-24T03:23:03.193Z,100043.89
2023-05-24T03:24:08.582Z,100037.96
2023-05-24T03:25:12.317Z,100039.11
2023-05-24T03:26:15.591Z,100039.55
2023-05-24T03:27:18.563Z,100041.42
2023-05-24T03:28:22.410Z,100038.85
2023-05-24T03:29:25.634Z,100044.30
2023-05-24T03:30:29.532Z,100042.42
2023-05-24T03:31:33.514Z,100037.56
2023-05-24T03:32:36.863Z,100037.21
2023-05-24T03:33:39.857Z,100038.40
2023-05-24T03:34:42.965Z,100035.39
2023-05-24T03:35:46.533Z,100038.01
2023-05-24T03:36:49.501Z,100036.97
2023-05-24T03:37:53.309Z,100038.66
2023-05-24T03:38:58.546Z,100040.79
2023-05-24T03:40:01.869Z,100041.33
2023-05-24T03:41:17.686Z,100040.23
2023-05-24T03:42:21.422Z,100041.64
2023-05-24T03:43:24.932Z,100043.30
2023-05-24T03:44:32.936Z,100043.89
2023-05-24T03:45:39.817Z,100042.83
2023-05-24T03:46:43.523Z,100044.48
2023-05-24T03:47:47.065Z,100044.08
2023-05-24T03:48:50.247Z,100045.18
2023-05-24T03:49:53.235Z,100048.99
2023-05-24T03:50:56.134Z,100050.31
2023-05-24T03:51:59.079Z,100049.48
2023-05-24T03:53:02.137Z,100051.15
2023-05-24T03:54:05.348Z,100051.58
2023-05-24T03:55:08.855Z,100051.70
2023-05-24T03:56:11.851Z,100053.64
2023-05-24T03:57:14.917Z,100059.70
2023-05-24T03:58:18.457Z,100062.34
2023-05-24T03:59:22.566Z,100063.85
2023-05-24T04:00:25.763Z,100064.48
2023-05-24T04:01:33.825Z,100064.94
2023-05-24T04:02:40.570Z,100067.15
2023-05-24T04:03:46.364Z,100067.21
2023-05-24T04:04:49.429Z,100065.80
2023-05-24T04:05:52.424Z,100067.02
2023-05-24T04:06:56.572Z,100064.22
2023-05-24T04:07:59.812Z,100062.60
2023-05-24T04:09:03.154Z,100065.32
2023-05-24T04:10:07.727Z,100064.77
2023-05-24T04:11:11.867Z,100065.16
2023-05-24T04:12:14.824Z,100066.92
2023-05-24T04:13:17.896Z,100065.74
2023-05-24T04:14:21.049Z,100065.23
2023-05-24T04:15:24.484Z,100067.45
2023-05-24T04:16:27.960Z,100068.71
2023-05-24T04:17:35.136Z,100070.91
2023-05-24T04:18:38.466Z,100072.92
2023-05-24T04:19:41.624Z,100070.73
2023-05-24T04:20:45.035Z,100074.42
2023-05-24T04:21:49.245Z,100076.59
2023-05-24T04:22:52.216Z,100081.63
2023-05-24T04:23:56.143Z,100080.75
2023-05-24T04:24:59.198Z,100081.06
2023-05-24T04:26:02.133Z,100080.48
2023-05-24T04:27:06.140Z,100078.98
2023-05-24T04:28:09.579Z,100083.45
2023-05-24T04:29:13.106Z,100083.73
2023-05-24T04:30:16.787Z,100084.15
2023-05-24T04:31:20.932Z,100089.48
2023-05-24T04:32:23.891Z,100086.31
2023-05-24T04:33:26.905Z,100084.11
2023-05-24T04:34:29.904Z,100089.79
2023-05-24T04:35:33.680Z,100087.32
2023-05-24T04:36:36.676Z,100090.23
2023-05-24T04:37:40.944Z,100089.84
2023-05-24T04:38:45.781Z,100093.52
2023-05-24T04:39:48.808Z,100095.42
2023-05-24T04:40:51.784Z,100097.49
2023-05-24T04:41:56.536Z,100096.26
2023-05-24T04:42:59.485Z,100091.82
2023-05-24T04:44:02.787Z,100090.08
2023-05-24T04:45:06.397Z,100090.08
2023-05-24T04:46:09.689Z,100092.77
2023-05-24T04:47:13.075Z,100090.66
2023-05-24T04:48:15.955Z,100091.67
2023-05-24T04:49:19.631Z,100092.20
2023-05-24T04:50:22.526Z,100088.48
2023-05-24T04:51:25.682Z,100088.20
2023-05-24T04:52:28.595Z,100093.58
2023-05-24T04:53:33.060Z,100091.37
2023-05-24T04:54:36.077Z,100092.93
2023-05-24T04:55:38.995Z,100092.77
2023-05-24T04:56:41.984Z,100093.36
2023-05-24T04:57:45.440Z,100100.52
2023-05-24T04:58:48.449Z,100101.84
2023-05-24T04:59:51.466Z,100103.16
2023-05-24T05:00:54.538Z,100102.91
2023-05-24T05:01:57.816Z,100106.80
2023-05-24T05:03:00.922Z,100107.41
2023-05-24T05:04:08.073Z,100107.98
2023-05-24T05:05:11.365Z,100104.77
2023-05-24T05:06:14.301Z,100112.45
2023-05-24T05:07:17.221Z,100113.84
2023-05-24T05:08:20.735Z,100112.41
2023-05-24T05:09:25.036Z,100114.52
2023-05-24T05:10:28.105Z,100110.52
2023-05-24T05:11:31.703Z,100120.01
2023-05-24T05:12:34.648Z,100120.66
2023-05-24T05:13:37.640Z,100123.20
2023-05-24T05:14:40.655Z,100122.48
2023-05-24T05:15:44.700Z,100123.95
2023-05-24T05:16:48.006Z,100122.32
2023-05-24T05:17:51.250Z,100115.74
2023-05-24T05:18:54.222Z,100118.98
2023-05-24T05:19:57.229Z,100120.09
2023-05-24T05:21:00.203Z,100123.59
2023-05-24T05:22:03.177Z,100123.27
2023-05-24T05:23:06.346Z,100122.20
2023-05-24T05:24:09.665Z,100123.43
2023-05-24T05:25:12.630Z,100123.92
2023-05-24T05:26:16.313Z,100122.48
2023-05-24T05:27:19.255Z,100124.51
2023-05-24T05:28:22.210Z,100127.59
2023-05-24T05:29:25.110Z,100126.45
2023-05-24T05:30:28.121Z,100126.05
2023-05-24T05:31:31.679Z,100126.27
2023-05-24T05:32:35.675Z,100125.86
2023-05-24T05:33:38.667Z,100123.92
2023-05-24T05:34:41.620Z,100126.70
2023-05-24T05:35:44.507Z,100126.02
2023-05-24T05:36:47.441Z,100126.52
2023-05-24T05:37:50.388Z,100133.15
2023-05-24T05:38:54.744Z,100131.31
2023-05-24T05:39:58.178Z,100131.56
2023-05-24T05:41:01.108Z,100135.27
2023-05-24T05:42:04.152Z,100128.66
2023-05-24T05:43:08.641Z,100134.75
2023-05-24T05:44:13.003Z,100131.06
2023-05-24T05:45:16.844Z,100133.11
2023-05-24T05:46:21.589Z,100129.66
2023-05-24T05:47:24.630Z,100131.17
2023-05-24T05:48:27.713Z,100130.85
2023-05-24T05:49:31.754Z,100134.98
2023-05-24T05:50:34.769Z,100132.80
2023-05-24T05:51:38.831Z,100135.69
2023-05-24T05:52:42.205Z,100135.40
2023-05-24T05:53:45.419Z,100139.11
2023-05-24T05:54:48.320Z,100135.80
2023-05-24T05:55:51.239Z,100134.84
2023-05-24T05:56:54.287Z,100136.55
2023-05-24T05:57:57.177Z,100141.13
2023-05-24T05:59:00.121Z,100146.15
2023-05-24T06:00:03.877Z,100146.69
2023-05-24T06:01:15.936Z,100145.83
2023-05-24T06:02:19.311Z,100151.94
2023-05-24T06:03:22.396Z,100152.48
2023-05-24T06:04:25.640Z,100156.70
2023-05-24T06:05:28.549Z,100153.73
2023-05-24T06:06:31.552Z,100154.61
2023-05-24T06:07:35.886Z,100153.20
2023-05-24T06:08:41.013Z,100155.59
2023-05-24T06:09:43.970Z,100156.26
2023-05-24T06:10:46.914Z,100153.34
2023-05-24T06:11:49.984Z,100156.63
2023-05-24T06:12:52.895Z,100157.95
2023-05-24T06:13:55.834Z,100156.36
2023-05-24T06:14:59.631Z,100164.06
2023-05-24T06:16:02.593Z,100163.86
2023-05-24T06:17:06.846Z,100168.29
2023-05-24T06:18:09.899Z,100169.36
2023-05-24T06:19:13.707Z,100171.36
2023-05-24T06:20:17.173Z,100173.69
2023-05-24T06:21:21.711Z,100174.54
2023-05-24T06:22:24.667Z,100171.36
2023-05-24T06:23:27.595Z,100171.15
2023-05-24T06:24:30.510Z,100176.20
2023-05-24T06:25:34.551Z,100182.20
2023-05-24T06:26:37.689Z,100184.81
2023-05-24T06:27:40.942Z,100185.15
2023-05-24T06:28:44.367Z,100180.32
2023-05-24T06:29:47.380Z,100179.83
2023-05-24T06:30:50.743Z,100178.91
2023-05-24T06:31:53.777Z,100184.70
2023-05-24T06:32:57.622Z,100184.45
2023-05-24T06:34:04.279Z,100188.05
2023-05-24T06:35:08.174Z,100186.13
2023-05-24T06:36:11.108Z,100190.80
2023-05-24T06:37:17.682Z,100192.88
2023-05-24T06:38:21.038Z,100194.90
2023-05-24T06:39:25.418Z,100194.48
2023-05-24T06:40:28.332Z,100194.21
2023-05-24T06:41:31.319Z,100198.36
2023-05-24T06:42:35.167Z,100196.19
2023-05-24T06:43:38.811Z,100203.04
2023-05-24T06:44:41.769Z,100199.42
2023-05-24T06:45:44.754Z,100198.21
2023-05-24T06:46:48.111Z,100204.52
2023-05-24T06:47:51.184Z,100200.62
2023-05-24T06:48:54.225Z,100202.06
2023-05-24T06:49:57.409Z,100199.56
2023-05-24T06:51:01.076Z,100197.70
2023-05-24T06:52:04.186Z,100199.27
2023-05-24T06:53:07.110Z,100204.20
2023-05-24T06:54:10.011Z,100203.44
2023-05-24T06:55:13.038Z,100202.36
2023-05-24T06:56:15.951Z,100203.95
2023-05-24T06:57:19.040Z,100203.33
2023-05-24T06:58:23.048Z,100209.31
2023-05-24T06:59:27.312Z,100207.71
2023-05-24T07:00:30.282Z,100210.87
2023-05-24T07:01:33.863Z,100210.75
2023-05-24T07:02:36.973Z,100207.48
2023-05-24T07:03:40.011Z,100209.84
2023-05-24T07:04:42.984Z,100215.33
2023-05-24T07:05:45.980Z,100213.45
2023-05-24T07:06:48.866Z,100213.25
2023-05-24T07:07:51.881Z,100214.98
2023-05-24T07:08:55.163Z,100210.74
2023-05-24T07:09:58.238Z,100215.56
2023-05-24T07:11:02.497Z,100213.59
2023-05-24T07:12:07.734Z,100216.25
2023-05-24T07:13:13.734Z,100216.77
2023-05-24T07:14:16.843Z,100217.52
2023-05-24T07:15:19.736Z,100218.04
2023-05-24T07:16:22.824Z,100216.52
2023-05-24T07:17:25.860Z,100223.38
2023-05-24T07:18:28.833Z,100221.99
2023-05-24T07:19:34.144Z,100226.70
2023-05-24T07:20:37.181Z,100228.39
2023-05-24T07:21:40.071Z,100230.00
2023-05-24T07:22:44.158Z,100228.48
2023-05-24T07:23:47.388Z,100231.75
2023-05-24T07:24:50.297Z,100232.94
2023-05-24T07:25:53.290Z,100232.38
2023-05-24T07:26:57.708Z,100235.45
2023-05-24T07:28:01.398Z,100233.33
2023-05-24T07:29:04.404Z,100237.02
2023-05-24T07:30:16.387Z,100238.83
2023-05-24T07:31:27.723Z,100240.61
2023-05-24T07:32:33.381Z,100244.14
2023-05-24T07:33:38.254Z,100241.16
2023-05-24T07:34:41.642Z,100241.13
2023-05-24T07:35:46.033Z,100241.36
2023-05-24T07:36:49.608Z,100243.76
2023-05-24T07:37:52.507Z,100243.60
2023-05-24T07:38:55.530Z,100245.60
2023-05-24T07:39:58.555Z,100249.27
2023-05-24T07:41:03.767Z,100248.84
2023-05-24T07:42:07.349Z,100249.54
2023-05-24T07:43:10.401Z,100251.04
2023-05-24T07:44:13.715Z,100252.41
2023-05-24T07:45:16.611Z,100254.36
2023-05-24T07:46:19.573Z,100256.48
2023-05-24T07:47:22.542Z,100258.00
2023-05-24T07:48:26.027Z,100256.52
2023-05-24T07:49:28.933Z,100260.23
2023-05-24T07:50:32.584Z,100260.11
2023-05-24T07:51:35.489Z,100259.54
2023-05-24T07:52:38.926Z,100263.88
2023-05-24T07:53:41.785Z,100263.14
2023-05-24T07:54:44.745Z,100267.41
2023-05-24T07:55:47.788Z,100266.58
2023-05-24T07:56:50.722Z,100268.33
2023-05-24T07:57:53.659Z,100271.73
2023-05-24T07:59:14.319Z,100271.14
2023-05-24T08:00:17.853Z,100274.01
2023-05-24T08:01:21.084Z,100274.48
2023-05-24T08:02:24.465Z,100275.66
2023-05-24T08:03:27.713Z,100279.50
2023-05-24T08:04:31.201Z,100275.77
2023-05-24T08:05:34.089Z,100273.55
2023-05-24T08:06:37.071Z,100277.39
2023-05-24T08:07:40.801Z,100276.88
2023-05-24T08:08:43.691Z,100277.11
2023-05-24T08:09:47.574Z,100274.89
2023-05-24T08:10:50.511Z,100277.89
2023-05-24T08:11:53.663Z,100277.20
2023-05-24T08:12:56.862Z,100278.61
2023-05-24T08:13:59.789Z,100279.52
2023-05-24T08:15:02.808Z,100279.45
2023-05-24T08:16:06.289Z,100278.04
2023-05-24T08:17:09.175Z,100278.48
2023-05-24T08:18:12.137Z,100277.40
2023-05-24T08:19:15.112Z,100277.23
2023-05-24T08:20:18.193Z,100279.18
2023-05-24T08:21:21.504Z,100282.02
2023-05-24T08:22:24.451Z,100282.65
2023-05-24T08:23:30.015Z,100283.86
2023-05-24T08:24:32.968Z,100283.92
2023-05-24T08:25:36.294Z,100284.79
2023-05-24T08:26:39.271Z,100284.89
2023-05-24T08:27:42.631Z,100283.45
2023-05-24T08:28:45.592Z,100280.79
2023-05-24T08:29:48.530Z,100284.71
2023-05-24T08:30:51.414Z,100285.46
2023-05-24T08:31:54.370Z,100287.08
2023-05-24T08:32:58.263Z,100288.98
2023-05-24T08:34:02.705Z,100288.73
2023-05-24T08:35:18.218Z,100291.39
2023-05-24T08:36:22.937Z,100290.84
2023-05-24T08:37:26.570Z,100293.30
2023-05-24T08:38:30.000Z,100291.53
2023-05-24T08:39:33.252Z,100293.69
2023-05-24T08:40:36.273Z,100293.48
2023-05-24T08:41:39.275Z,100294.31
2023-05-24T08:42:42.629Z,100289.85
2023-05-24T08:43:47.189Z,100291.50
2023-05-24T08:44:58.650Z,100292.89
2023-05-24T08:46:03.992Z,100296.17
2023-05-24T08:47:08.337Z,100298.59
2023-05-24T08:48:13.427Z,100302.38
2023-05-24T08:49:16.690Z,100297.45
2023-05-24T08:50:20.556Z,100299.17
2023-05-24T08:51:24.663Z,100298.08
2023-05-24T08:52:28.783Z,100300.14
2023-05-24T08:53:36.349Z,100301.80
2023-05-24T08:54:40.864Z,100310.39
2023-05-24T08:55:44.493Z,100305.15
2023-05-24T08:56:48.446Z,100307.14
2023-05-24T08:57:52.752Z,100302.34
2023-05-24T08:58:56.195Z,100306.41
2023-05-24T08:59:59.396Z,100307.33
2023-05-24T09:01:02.739Z,100306.85
2023-05-24T09:02:06.477Z,100320.64
2023-05-24T09:03:11.500Z,100319.52
2023-05-24T09:04:14.870Z,100316.95
2023-05-24T09:05:21.817Z,100316.54
2023-05-24T09:06:25.519Z,100318.64
2023-05-24T09:07:30.445Z,100314.61
2023-05-24T09:08:35.814Z,100325.19
2023-05-24T09:09:47.537Z,100320.53
2023-05-24T09:10:55.493Z,100318.09
2023-05-24T09:12:04.764Z,100317.63
2023-05-24T09:13:08.077Z,100318.95
2023-05-24T09:14:11.449Z,100317.98
2023-05-24T09:15:14.596Z,100319.98
2023-05-24T09:16:17.604Z,100322.16
2023-05-24T09:17:21.236Z,100328.14
2023-05-24T09:18:24.336Z,100326.55
2023-05-24T09:19:29.236Z,100328.23
2023-05-24T09:20:32.320Z,100333.69
2023-05-24T09:21:35.481Z,100329.90
2023-05-24T09:22:41.864Z,100330.39
2023-05-24T09:23:45.613Z,100326.22
2023-05-24T09:24:53.119Z,100330.16
2023-05-24T09:25:56.161Z,100327.17
2023-05-24T09:27:06.774Z,100331.15
2023-05-24T09:28:09.702Z,100329.88
2023-05-24T09:29:12.744Z,100333.00
2023-05-24T09:30:16.496Z,100330.70
2023-05-24T09:31:19.612Z,100332.80
2023-05-24T09:32:24.539Z,100335.95
2023-05-24T09:33:34.731Z,100335.33
2023-05-24T09:34:47.389Z,100340.45
2023-05-24T09:35:50.314Z,100336.33
2023-05-24T09:36:53.639Z,100337.71
2023-05-24T09:38:00.061Z,100337.89
2023-05-24T09:39:10.609Z,100338.14
2023-05-24T09:40:19.551Z,100337.33
2023-05-24T09:41:23.053Z,100340.42
2023-05-24T09:42:30.437Z,100344.15
2023-05-24T09:43:35.129Z,100340.98
2023-05-24T09:44:38.112Z,100344.95
2023-05-24T09:45:49.145Z,100343.09
2023-05-24T09:46:52.351Z,100348.91
2023-05-24T09:47:55.359Z,100347.30
2023-05-24T09:49:04.088Z,100348.16
2023-05-24T09:50:16.643Z,100345.81
2023-05-24T09:51:20.090Z,100345.56
2023-05-24T09:52:23.192Z,100346.66
2023-05-24T09:53:26.843Z,100347.31
2023-05-24T09:54:32.407Z,100345.11
2023-05-24T09:55:38.410Z,100347.57
2023-05-24T09:56:42.127Z,100348.73
2023-05-24T09:57:46.032Z,100348.29
2023-05-24T09:58:49.061Z,100350.29
2023-05-24T09:59:52.607Z,100355.34
2023-05-24T10:01:05.199Z,100352.65
2023-05-24T10:02:12.911Z,100351.96
2023-05-24T10:03:16.267Z,100350.46
2023-05-24T10:04:19.507Z,100352.98
2023-05-24T10:05:23.384Z,100350.46
2023-05-24T10:06:26.285Z,100352.27
2023-05-24T10:07:29.922Z,100347.36
2023-05-24T10:08:34.910Z,100350.59
2023-05-24T10:09:38.338Z,100350.97
2023-05-24T10:10:42.340Z,100352.08
2023-05-24T10:11:45.997Z,100356.33
2023-05-24T10:12:50.105Z,100356.27
2023-05-24T10:13:53.670Z,100356.75
2023-05-24T10:14:58.104Z,100357.84
2023-05-24T10:16:01.100Z,100355.45
2023-05-24T10:17:08.173Z,100355.68
2023-05-24T10:18:13.880Z,100357.30
2023-05-24T10:19:17.354Z,100358.18
2023-05-24T10:20:21.336Z,100359.25
2023-05-24T10:21:26.093Z,100360.02
2023-05-24T10:22:29.612Z,100361.39
2023-05-24T10:23:33.132Z,100363.52
2023-05-24T10:24:41.166Z,100359.79
2023-05-24T10:25:51.952Z,100360.35
2023-05-24T10:26:56.426Z,100362.19
2023-05-24T10:28:04.772Z,100359.23
2023-05-24T10:29:17.025Z,100363.08
2023-05-24T10:30:56.852Z,100362.33
2023-05-24T10:32:00.589Z,100360.75
2023-05-24T10:33:08.281Z,100361.21
2023-05-24T10:34:11.776Z,100358.41
2023-05-24T10:35:16.410Z,100360.66
2023-05-24T10:36:19.742Z,100361.69
2023-05-24T10:37:24.929Z,100362.66
2023-05-24T10:38:29.805Z,100357.63
2023-05-24T10:39:33.665Z,100359.61
2023-05-24T10:40:42.074Z,100360.95
2023-05-24T10:41:45.179Z,100362.99
2023-05-24T10:42:48.720Z,100366.23
2023-05-24T10:44:07.904Z,100362.58
2023-05-24T10:45:38.979Z,100362.81
2023-05-24T10:47:11.122Z,100362.09
2023-05-24T10:48:14.320Z,100364.80
2023-05-24T10:49:19.306Z,100364.90
2023-05-24T10:50:24.059Z,100363.23
2023-05-24T10:51:33.041Z,100364.21
2023-05-24T10:52:37.177Z,100365.16
2023-05-24T10:53:41.006Z,100365.50
2023-05-24T10:55:07.948Z,100364.91
2023-05-24T10:56:13.776Z,100369.19
2023-05-24T10:57:24.694Z,100370.13
2023-05-24T10:58:44.855Z,100364.03
2023-05-24T10:59:47.842Z,100368.49
2023-05-24T11:00:52.227Z,100366.15
2023-05-24T11:02:00.858Z,100364.68
2023-05-24T11:03:09.075Z,100369.70
2023-05-24T11:04:17.463Z,100368.42
2023-05-24T11:05:20.457Z,100370.08
2023-05-24T11:06:49.616Z,100371.92
2023-05-24T11:08:00.089Z,100376.98
2023-05-24T11:09:03.423Z,100373.66
2023-05-24T11:10:13.964Z,100370.65
2023-05-24T11:11:25.570Z,100373.45
2023-05-24T11:12:38.738Z,100376.70
2023-05-24T11:13:42.542Z,100376.48
2023-05-24T11:14:50.365Z,100374.95
2023-05-24T11:15:53.680Z,100382.09
2023-05-24T11:16:57.908Z,100375.11
2023-05-24T11:18:09.692Z,100374.52
2023-05-24T11:19:24.896Z,100373.02
2023-05-24T11:20:28.394Z,100375.33
2023-05-24T11:21:31.841Z,100375.88
2023-05-24T11:22:35.166Z,100377.24
2023-05-24T11:23:38.484Z,100376.50
2023-05-24T11:24:42.342Z,100375.46
2023-05-24T11:25:48.808Z,100375.55
2023-05-24T11:26:53.019Z,100380.34
2023-05-24T11:27:59.722Z,100378.24
2023-05-24T11:29:05.496Z,100380.64
2023-05-24T11:30:09.195Z,100380.11
2023-05-24T11:31:12.509Z,100376.38
2023-05-24T11:32:20.619Z,100381.39
2023-05-24T11:33:24.552Z,100375.43
2023-05-24T11:34:27.619Z,100372.11
2023-05-24T11:35:30.559Z,100369.91
2023-05-24T11:36:33.858Z,100376.02
2023-05-24T11:37:46.330Z,100373.66
2023-05-24T11:38:50.155Z,100372.91
2023-05-24T11:39:53.433Z,100372.06
2023-05-24T11:40:58.574Z,100369.73
2023-05-24T11:42:04.930Z,100370.11
2023-05-24T11:43:08.051Z,100373.67
2023-05-24T11:44:12.262Z,100371.06
2023-05-24T11:45:15.822Z,100373.62
2023-05-24T11:46:20.383Z,100369.30
2023-05-24T11:47:23.636Z,100373.53
2023-05-24T11:48:27.825Z,100368.86
2023-05-24T11:49:30.828Z,100369.50
2023-05-24T11:50:48.721Z,100365.33
2023-05-24T11:51:57.925Z,100365.55
2023-05-24T11:53:04.140Z,100363.40
2023-05-24T11:54:07.052Z,100359.71
2023-05-24T11:55:16.423Z,100356.02
2023-05-24T11:56:21.688Z,100360.55
2023-05-24T11:57:37.171Z,100356.36
2023-05-24T11:58:49.038Z,100358.05
2023-05-24T11:59:53.497Z,100362.67
2023-05-24T12:00:56.393Z,100361.67
2023-05-24T12:02:08.142Z,100367.37
2023-05-24T12:03:11.322Z,100364.81
2023-05-24T12:04:14.572Z,100362.13
2023-05-24T12:05:19.397Z,100362.18
2023-05-24T12:06:23.018Z,100360.74
2023-05-24T12:07:25.963Z,100360.15
2023-05-24T12:08:28.842Z,100357.39
2023-05-24T12:09:31.934Z,100364.34
2023-05-24T12:10:42.924Z,100361.05
2023-05-24T12:11:51.240Z,100368.72
2023-05-24T12:12:54.185Z,100364.87
2023-05-24T12:13:58.529Z,100365.38
2023-05-24T12:15:01.412Z,100360.95
2023-05-24T12:16:04.414Z,100365.11
2023-05-24T12:17:16.434Z,100363.25
2023-05-24T12:18:23.747Z,100369.36
2023-05-24T12:19:33.730Z,100360.70
2023-05-24T12:20:39.198Z,100363.04
2023-05-24T12:21:42.813Z,100366.11